sensor_id;sensor_type;location;lat;lon;timestamp;pressure;altitude;pressure_sealevel;temperature;humidity
76285;BME280;65096;50.998;7.098;2023-04-15T00:00:32;100112.31;;;8.88;42.40
76285;BME280;65096;50.998;7.098;2023-04-15T00:02:59;100101.16;;;8.85;42.96
76285;BME280;65096;50.998;7.098;2023-04-15T00:05:28;100098.59;;;8.82;42.48
76285;BME280;65096;50.998;7.098;2023-04-15T00:07:55;100103.72;;;8.80;42.10
76285;BME280;65096;50.998;7.098;2023-04-15T00:10:23;100102.84;;;8.80;41.79
76285;BME280;65096;50.998;7.098;2023-04-15T00:12:50;100100.28;;;8.74;41.85
76285;BME280;65096;50.998;7.098;2023-04-15T00:15:18;100087.34;;;8.63;41.78
76285;BME280;65096;50.998;7.098;2023-04-15T00:17:45;100097.69;;;8.66;41.81
76285;BME280;65096;50.998;7.098;2023-04-15T00:20:12;100100.19;;;8.62;41.60
76285;BME280;65096;50.998;7.098;2023-04-15T00:22:38;100095.91;;;8.59;41.37
76285;BME280;65096;50.998;7.098;2023-04-15T00:25:06;100096.78;;;8.60;41.22
76285;BME280;65096;50.998;7.098;2023-04-15T00:27:35;100099.34;;;8.58;41.92
76285;BME280;65096;50.998;7.098;2023-04-15T00:30:02;100089.03;;;8.52;41.66
76285;BME280;65096;50.998;7.098;2023-04-15T00:32:29;100093.34;;;8.55;41.57
76285;BME280;65096;50.998;7.098;2023-04-15T00:34:56;100092.44;;;8.51;41.85
76285;BME280;65096;50.998;7.098;2023-04-15T00:37:22;100095.84;;;8.47;42.15
76285;BME280;65096;50.998;7.098;2023-04-15T00:39:49;100087.28;;;8.44;42.45
76285;BME280;65096;50.998;7.098;2023-04-15T00:42:17;100098.41;;;8.44;42.07
76285;BME280;65096;50.998;7.098;2023-04-15T00:44:45;100094.13;;;8.43;42.01
76285;BME280;65096;50.998;7.098;2023-04-15T00:47:13;100087.22;;;8.38;43.01
76285;BME280;65096;50.998;7.098;2023-04-15T00:49:40;100088.97;;;8.40;42.16
76285;BME280;65096;50.998;7.098;2023-04-15T00:52:07;100092.34;;;8.35;42.56
76285;BME280;65096;50.998;7.098;2023-04-15T00:54:34;100099.22;;;8.33;42.52
76285;BME280;65096;50.998;7.098;2023-04-15T00:57:04;100100.06;;;8.36;43.34
76285;BME280;65096;50.998;7.098;2023-04-15T00:59:32;100099.22;;;8.34;42.71
76285;BME280;65096;50.998;7.098;2023-04-15T01:02:00;100094.91;;;8.32;43.39
76285;BME280;65096;50.998;7.098;2023-04-15T01:04:27;100099.16;;;8.27;43.45
76285;BME280;65096;50.998;7.098;2023-04-15T01:06:54;100094.84;;;8.18;43.39
76285;BME280;65096;50.998;7.098;2023-04-15T01:09:21;100093.13;;;8.19;43.47
76285;BME280;65096;50.998;7.098;2023-04-15T01:11:47;100092.22;;;8.11;43.82
76285;BME280;65096;50.998;7.098;2023-04-15T01:14:14;100090.53;;;8.14;43.91
76285;BME280;65096;50.998;7.098;2023-04-15T01:16:41;100086.25;;;8.15;43.88
76285;BME280;65096;50.998;7.098;2023-04-15T01:19:13;100051.03;;;7.94;43.68
76285;BME280;65096;50.998;7.098;2023-04-15T01:21:42;100075.94;;;8.07;44.51
76285;BME280;65096;50.998;7.098;2023-04-15T01:24:09;100058.78;;;8.00;44.05
76285;BME280;65096;50.998;7.098;2023-04-15T01:26:38;100086.25;;;8.12;44.07
76285;BME280;65096;50.998;7.098;2023-04-15T01:29:05;100084.50;;;8.09;44.63
76285;BME280;65096;50.998;7.098;2023-04-15T01:31:32;100084.47;;;8.06;44.29
76285;BME280;65096;50.998;7.098;2023-04-15T01:33:59;100088.75;;;8.04;44.57
76285;BME280;65096;50.998;7.098;2023-04-15T01:36:26;100088.75;;;8.04;44.39
76285;BME280;65096;50.998;7.098;2023-04-15T01:38:55;100090.47;;;8.01;44.41
76285;BME280;65096;50.998;7.098;2023-04-15T01:41:24;100093.88;;;8.03;45.31
76285;BME280;65096;50.998;7.098;2023-04-15T01:43:52;100094.69;;;7.97;46.57
76285;BME280;65096;50.998;7.098;2023-04-15T01:46:19;100099.81;;;7.94;45.75
76285;BME280;65096;50.998;7.098;2023-04-15T01:48:45;100102.31;;;7.87;45.62
76285;BME280;65096;50.998;7.098;2023-04-15T01:51:12;100102.28;;;7.81;45.39
76285;BME280;65096;50.998;7.098;2023-04-15T01:53:39;100094.47;;;7.71;45.15
76285;BME280;65096;50.998;7.098;2023-04-15T01:56:06;100100.41;;;7.66;45.81
76285;BME280;65096;50.998;7.098;2023-04-15T01:58:33;100100.41;;;7.67;45.72
76285;BME280;65096;50.998;7.098;2023-04-15T02:01:01;100097.00;;;7.67;45.75
76285;BME280;65096;50.998;7.098;2023-04-15T02:03:29;100101.25;;;7.63;45.70
76285;BME280;65096;50.998;7.098;2023-04-15T02:05:55;100097.78;;;7.58;45.43
76285;BME280;65096;50.998;7.098;2023-04-15T02:08:22;100101.22;;;7.57;45.42
76285;BME280;65096;50.998;7.098;2023-04-15T02:10:49;100091.75;;;7.53;45.88
76285;BME280;65096;50.998;7.098;2023-04-15T02:13:16;100097.72;;;7.51;45.87
76285;BME280;65096;50.998;7.098;2023-04-15T02:15:46;100096.84;;;7.47;45.99
76285;BME280;65096;50.998;7.098;2023-04-15T02:18:14;100101.09;;;7.47;46.14
76285;BME280;65096;50.998;7.098;2023-04-15T02:20:41;100085.56;;;7.30;46.11
76285;BME280;65096;50.998;7.098;2023-04-15T02:23:08;100106.13;;;7.36;46.02
76285;BME280;65096;50.998;7.098;2023-04-15T02:25:35;100106.97;;;7.35;45.99
76285;BME280;65096;50.998;7.098;2023-04-15T02:28:03;100104.38;;;7.34;46.39
76285;BME280;65096;50.998;7.098;2023-04-15T02:30:30;100104.34;;;7.29;46.57
76285;BME280;65096;50.998;7.098;2023-04-15T02:32:57;100097.50;;;7.27;46.41
76285;BME280;65096;50.998;7.098;2023-04-15T02:35:25;100106.84;;;7.23;46.29
76285;BME280;65096;50.998;7.098;2023-04-15T02:37:52;100101.69;;;7.19;46.16
76285;BME280;65096;50.998;7.098;2023-04-15T02:40:18;100111.91;;;7.16;46.73
76285;BME280;65096;50.998;7.098;2023-04-15T02:42:45;100117.03;;;7.14;46.45
76285;BME280;65096;50.998;7.098;2023-04-15T02:45:12;100105.84;;;7.06;46.51
76285;BME280;65096;50.998;7.098;2023-04-15T02:47:38;100114.38;;;7.10;46.59
76285;BME280;65096;50.998;7.098;2023-04-15T02:50:07;100116.91;;;7.05;47.20
76285;BME280;65096;50.998;7.098;2023-04-15T02:52:38;100123.72;;;7.03;47.24
76285;BME280;65096;50.998;7.098;2023-04-15T02:55:06;100118.53;;;6.99;47.17
76285;BME280;65096;50.998;7.098;2023-04-15T02:57:34;100121.06;;;6.94;46.51
76285;BME280;65096;50.998;7.098;2023-04-15T03:00:01;100122.72;;;6.92;46.87
76285;BME280;65096;50.998;7.098;2023-04-15T03:02:32;100110.72;;;6.85;47.55
76285;BME280;65096;50.998;7.098;2023-04-15T03:05:00;100118.41;;;6.87;47.49
76285;BME280;65096;50.998;7.098;2023-04-15T03:07:26;100125.22;;;6.85;47.22
76285;BME280;65096;50.998;7.098;2023-04-15T03:09:54;100124.34;;;6.83;47.25
76285;BME280;65096;50.998;7.098;2023-04-15T03:12:21;100126.91;;;6.83;46.81
76285;BME280;65096;50.998;7.098;2023-04-15T03:14:48;100130.28;;;6.80;47.11
76285;BME280;65096;50.998;7.098;2023-04-15T03:17:14;100130.25;;;6.77;47.11
76285;BME280;65096;50.998;7.098;2023-04-15T03:19:41;100128.47;;;6.72;47.39
76285;BME280;65096;50.998;7.098;2023-04-15T03:22:08;100130.09;;;6.65;47.70
76285;BME280;65096;50.998;7.098;2023-04-15T03:24:34;100137.75;;;6.64;47.62
76285;BME280;65096;50.998;7.098;2023-04-15T03:27:02;100139.50;;;6.65;47.86
76285;BME280;65096;50.998;7.098;2023-04-15T03:29:30;100142.88;;;6.64;47.27
76285;BME280;65096;50.998;7.098;2023-04-15T03:31:57;100150.56;;;6.62;47.82
76285;BME280;65096;50.998;7.098;2023-04-15T03:34:23;100153.06;;;6.58;47.61
76285;BME280;65096;50.998;7.098;2023-04-15T03:36:50;100147.00;;;6.53;47.64
76285;BME280;65096;50.998;7.098;2023-04-15T03:39:17;100148.63;;;6.48;48.05
76285;BME280;65096;50.998;7.098;2023-04-15T03:41:43;100147.72;;;6.43;47.74
76285;BME280;65096;50.998;7.098;2023-04-15T03:44:12;100161.34;;;6.40;48.07
76285;BME280;65096;50.998;7.098;2023-04-15T03:46:38;100158.75;;;6.39;47.81
76285;BME280;65096;50.998;7.098;2023-04-15T03:49:05;100157.84;;;6.35;48.11
76285;BME280;65096;50.998;7.098;2023-04-15T03:51:32;100143.09;;;6.19;47.97
76285;BME280;65096;50.998;7.098;2023-04-15T03:53:59;100168.03;;;6.30;47.98
76285;BME280;65096;50.998;7.098;2023-04-15T03:56:26;100164.56;;;6.27;47.83
76285;BME280;65096;50.998;7.098;2023-04-15T03:58:53;100160.25;;;6.23;48.30
76285;BME280;65096;50.998;7.098;2023-04-15T04:01:21;100155.03;;;6.18;48.85
76285;BME280;65096;50.998;7.098;2023-04-15T04:03:48;100154.09;;;6.13;48.43
76285;BME280;65096;50.998;7.098;2023-04-15T04:06:15;100160.88;;;6.10;49.39
76285;BME280;65096;50.998;7.098;2023-04-15T04:08:41;100157.38;;;6.05;48.54
76285;BME280;65096;50.998;7.098;2023-04-15T04:11:08;100153.03;;;6.01;48.72
76285;BME280;65096;50.998;7.098;2023-04-15T04:13:35;100156.44;;;6.01;48.84
76285;BME280;65096;50.998;7.098;2023-04-15T04:16:02;100165.78;;;5.98;48.64
76285;BME280;65096;50.998;7.098;2023-04-15T04:18:31;100168.28;;;5.95;49.59
76285;BME280;65096;50.998;7.098;2023-04-15T04:20:57;100163.09;;;5.90;49.37
76285;BME280;65096;50.998;7.098;2023-04-15T04:23:24;100160.50;;;5.87;49.08
76285;BME280;65096;50.998;7.098;2023-04-15T04:25:51;100169.75;;;5.81;49.50
76285;BME280;65096;50.998;7.098;2023-04-15T04:28:18;100165.41;;;5.77;49.26
76285;BME280;65096;50.998;7.098;2023-04-15T04:30:44;100169.66;;;5.73;48.99
76285;BME280;65096;50.998;7.098;2023-04-15T04:33:11;100165.31;;;5.71;49.56
76285;BME280;65096;50.998;7.098;2023-04-15T04:35:39;100171.31;;;5.71;49.33
76285;BME280;65096;50.998;7.098;2023-04-15T04:38:06;100167.84;;;5.69;49.64
76285;BME280;65096;50.998;7.098;2023-04-15T04:40:33;100166.94;;;5.66;48.94
76285;BME280;65096;50.998;7.098;2023-04-15T04:43:00;100169.50;;;5.66;49.34
76285;BME280;65096;50.998;7.098;2023-04-15T04:45:26;100166.84;;;5.61;49.80
76285;BME280;65096;50.998;7.098;2023-04-15T04:47:53;100175.44;;;5.65;49.57
76285;BME280;65096;50.998;7.098;2023-04-15T04:50:20;100177.94;;;5.60;49.60
76285;BME280;65096;50.998;7.098;2023-04-15T04:52:48;100183.03;;;5.59;50.15
76285;BME280;65096;50.998;7.098;2023-04-15T04:55:14;100185.41;;;5.51;49.52
76285;BME280;65096;50.998;7.098;2023-04-15T04:57:41;100183.69;;;5.49;49.90
76285;BME280;65096;50.998;7.098;2023-04-15T05:00:09;100180.28;;;5.50;49.70
76285;BME280;65096;50.998;7.098;2023-04-15T05:02:36;100181.94;;;5.46;49.97
76285;BME280;65096;50.998;7.098;2023-04-15T05:05:04;100198.06;;;5.44;49.99
76285;BME280;65096;50.998;7.098;2023-04-15T05:07:31;100190.41;;;5.44;50.45
76285;BME280;65096;50.998;7.098;2023-04-15T05:09:59;100200.56;;;5.41;50.40
76285;BME280;65096;50.998;7.098;2023-04-15T05:12:26;100199.66;;;5.37;50.75
76285;BME280;65096;50.998;7.098;2023-04-15T05:14:52;100189.22;;;5.25;50.66
76285;BME280;65096;50.998;7.098;2023-04-15T05:17:19;100203.78;;;5.31;50.40
76285;BME280;65096;50.998;7.098;2023-04-15T05:19:46;100214.88;;;5.31;50.82
76285;BME280;65096;50.998;7.098;2023-04-15T05:22:13;100200.22;;;5.23;50.26
76285;BME280;65096;50.998;7.098;2023-04-15T05:24:40;100210.59;;;5.29;50.77
76285;BME280;65096;50.998;7.098;2023-04-15T05:27:08;100212.25;;;5.27;51.53
76285;BME280;65096;50.998;7.098;2023-04-15T05:29:36;100209.78;;;5.31;51.17
76285;BME280;65096;50.998;7.098;2023-04-15T05:32:02;100213.06;;;5.27;50.81
76285;BME280;65096;50.998;7.098;2023-04-15T05:34:29;100215.56;;;5.24;50.77
76285;BME280;65096;50.998;7.098;2023-04-15T05:36:55;100213.06;;;5.26;51.25
76285;BME280;65096;50.998;7.098;2023-04-15T05:39:22;100217.34;;;5.27;51.27
76285;BME280;65096;50.998;7.098;2023-04-15T05:41:49;100220.88;;;5.32;51.03
76285;BME280;65096;50.998;7.098;2023-04-15T05:44:17;100220.03;;;5.33;50.70
76285;BME280;65096;50.998;7.098;2023-04-15T05:46:43;100224.25;;;5.32;51.48
76285;BME280;65096;50.998;7.098;2023-04-15T05:49:10;100218.28;;;5.30;51.07
76285;BME280;65096;50.998;7.098;2023-04-15T05:51:37;100229.41;;;5.34;51.63
76285;BME280;65096;50.998;7.098;2023-04-15T05:54:04;100224.25;;;5.32;51.76
76285;BME280;65096;50.998;7.098;2023-04-15T05:56:31;100224.31;;;5.35;51.61
76285;BME280;65096;50.998;7.098;2023-04-15T05:58:58;100233.75;;;5.38;51.90
76285;BME280;65096;50.998;7.098;2023-04-15T06:01:26;100230.38;;;5.40;51.44
76285;BME280;65096;50.998;7.098;2023-04-15T06:03:53;100233.84;;;5.42;51.86
76285;BME280;65096;50.998;7.098;2023-04-15T06:06:19;100231.41;;;5.48;52.17
76285;BME280;65096;50.998;7.098;2023-04-15T06:08:46;100234.00;;;5.51;51.99
76285;BME280;65096;50.998;7.098;2023-04-15T06:11:12;100239.31;;;5.60;51.87
76285;BME280;65096;50.998;7.098;2023-04-15T06:13:39;100236.88;;;5.66;51.90
76285;BME280;65096;50.998;7.098;2023-04-15T06:16:06;100239.53;;;5.72;51.77
76285;BME280;65096;50.998;7.098;2023-04-15T06:18:34;100246.50;;;5.79;52.23
76285;BME280;65096;50.998;7.098;2023-04-15T06:21:01;100246.53;;;5.82;51.84
76285;BME280;65096;50.998;7.098;2023-04-15T06:23:28;100247.56;;;5.92;52.02
76285;BME280;65096;50.998;7.098;2023-04-15T06:25:54;100245.16;;;6.01;53.50
76285;BME280;65096;50.998;7.098;2023-04-15T06:28:21;100251.25;;;6.07;53.21
76285;BME280;65096;50.998;7.098;2023-04-15T06:30:48;100250.47;;;6.11;53.91
76285;BME280;65096;50.998;7.098;2023-04-15T06:33:15;100260.88;;;6.20;53.55
76285;BME280;65096;50.998;7.098;2023-04-15T06:35:43;100257.56;;;6.24;54.00
76285;BME280;65096;50.998;7.098;2023-04-15T06:38:10;100261.94;;;6.33;53.58
76285;BME280;65096;50.998;7.098;2023-04-15T06:40:36;100262.22;;;6.50;56.33
76285;BME280;65096;50.998;7.098;2023-04-15T06:43:03;100259.84;;;6.62;53.24
76285;BME280;65096;50.998;7.098;2023-04-15T06:45:30;100264.25;;;6.70;53.37
76285;BME280;65096;50.998;7.098;2023-04-15T06:47:56;100272.91;;;6.78;53.44
76285;BME280;65096;50.998;7.098;2023-04-15T06:50:23;100273.16;;;6.95;53.37
76285;BME280;65096;50.998;7.098;2023-04-15T06:52:52;100275.03;;;7.06;53.29
76285;BME280;65096;50.998;7.098;2023-04-15T06:55:19;100282.25;;;7.36;54.42
76285;BME280;65096;50.998;7.098;2023-04-15T06:57:46;100286.81;;;7.62;55.49
76285;BME280;65096;50.998;7.098;2023-04-15T07:00:13;100283.72;;;7.85;53.92
76285;BME280;65096;50.998;7.098;2023-04-15T07:02:40;100274.28;;;7.85;52.32
76285;BME280;65096;50.998;7.098;2023-04-15T07:05:07;100280.44;;;8.01;55.57
76285;BME280;65096;50.998;7.098;2023-04-15T07:07:34;100285.69;;;8.14;53.34
76285;BME280;65096;50.998;7.098;2023-04-15T07:10:03;100287.53;;;8.27;52.77
76285;BME280;65096;50.998;7.098;2023-04-15T07:12:30;100292.75;;;8.39;52.78
76285;BME280;65096;50.998;7.098;2023-04-15T07:14:57;100293.75;;;8.50;52.95
76285;BME280;65096;50.998;7.098;2023-04-15T07:17:23;100292.09;;;8.58;51.76
76285;BME280;65096;50.998;7.098;2023-04-15T07:19:50;100276.59;;;8.52;51.82
76285;BME280;65096;50.998;7.098;2023-04-15T07:22:17;100302.50;;;8.78;52.88
76285;BME280;65096;50.998;7.098;2023-04-15T07:24:44;100300.00;;;8.85;52.00
76285;BME280;65096;50.998;7.098;2023-04-15T07:27:12;100304.28;;;8.88;50.49
76285;BME280;65096;50.998;7.098;2023-04-15T07:29:39;100300.91;;;8.95;50.61
76285;BME280;65096;50.998;7.098;2023-04-15T07:32:05;100303.53;;;9.02;50.54
76285;BME280;65096;50.998;7.098;2023-04-15T07:34:32;100301.84;;;9.09;50.97
76285;BME280;65096;50.998;7.098;2023-04-15T07:36:59;100304.56;;;9.29;51.03
76285;BME280;65096;50.998;7.098;2023-04-15T07:39:26;100310.66;;;9.49;50.60
76285;BME280;65096;50.998;7.098;2023-04-15T07:41:53;100309.84;;;9.59;49.32
76285;BME280;65096;50.998;7.098;2023-04-15T07:44:22;100317.59;;;9.62;49.55
76285;BME280;65096;50.998;7.098;2023-04-15T07:46:48;100312.44;;;9.68;49.41
76285;BME280;65096;50.998;7.098;2023-04-15T07:49:15;100309.06;;;9.79;48.92
76285;BME280;65096;50.998;7.098;2023-04-15T07:51:43;100322.00;;;9.97;48.76
76285;BME280;65096;50.998;7.098;2023-04-15T07:54:10;100319.44;;;10.09;48.82
76285;BME280;65096;50.998;7.098;2023-04-15T07:56:37;100314.28;;;10.14;48.19
76285;BME280;65096;50.998;7.098;2023-04-15T07:59:04;100322.94;;;10.26;47.48
76285;BME280;65096;50.998;7.098;2023-04-15T08:01:32;100311.75;;;10.32;48.05
76285;BME280;65096;50.998;7.098;2023-04-15T08:03:59;100323.75;;;10.31;47.18
76285;BME280;65096;50.998;7.098;2023-04-15T08:06:26;100324.69;;;10.44;45.66
76285;BME280;65096;50.998;7.098;2023-04-15T08:08:53;100334.13;;;10.58;45.93
76285;BME280;65096;50.998;7.098;2023-04-15T08:11:20;100338.44;;;10.59;45.73
76285;BME280;65096;50.998;7.098;2023-04-15T08:13:47;100336.72;;;10.60;45.93
76285;BME280;65096;50.998;7.098;2023-04-15T08:16:17;100339.31;;;10.71;46.06
76285;BME280;65096;50.998;7.098;2023-04-15T08:18:45;100342.75;;;10.74;45.81
76285;BME280;65096;50.998;7.098;2023-04-15T08:21:12;100351.34;;;10.79;45.46
76285;BME280;65096;50.998;7.098;2023-04-15T08:23:39;100353.91;;;10.85;45.20
76285;BME280;65096;50.998;7.098;2023-04-15T08:26:07;100349.63;;;10.89;45.05
76285;BME280;65096;50.998;7.098;2023-04-15T08:28:34;100339.31;;;10.89;45.60
76285;BME280;65096;50.998;7.098;2023-04-15T08:31:01;100349.59;;;10.99;44.75
76285;BME280;65096;50.998;7.098;2023-04-15T08:33:28;100355.59;;;11.10;44.94
76285;BME280;65096;50.998;7.098;2023-04-15T08:35:56;100362.50;;;11.13;45.01
76285;BME280;65096;50.998;7.098;2023-04-15T08:38:23;100365.06;;;11.13;44.73
76285;BME280;65096;50.998;7.098;2023-04-15T08:40:49;100361.63;;;11.14;44.91
76285;BME280;65096;50.998;7.098;2023-04-15T08:43:20;100360.75;;;11.09;44.31
76285;BME280;65096;50.998;7.098;2023-04-15T08:45:49;100365.03;;;11.26;44.79
76285;BME280;65096;50.998;7.098;2023-04-15T08:48:17;100369.28;;;11.44;44.05
76285;BME280;65096;50.998;7.098;2023-04-15T08:50:45;100371.88;;;11.62;43.60
76285;BME280;65096;50.998;7.098;2023-04-15T08:53:14;100370.91;;;11.82;43.85
76285;BME280;65096;50.998;7.098;2023-04-15T08:55:43;100371.72;;;12.02;42.87
76285;BME280;65096;50.998;7.098;2023-04-15T08:58:11;100362.97;;;12.19;42.29
76285;BME280;65096;50.998;7.098;2023-04-15T09:00:38;100371.50;;;12.37;41.20
76285;BME280;65096;50.998;7.098;2023-04-15T09:03:05;100372.28;;;12.48;41.89
76285;BME280;65096;50.998;7.098;2023-04-15T09:05:32;100366.22;;;12.57;42.23
76285;BME280;65096;50.998;7.098;2023-04-15T09:07:59;100366.19;;;12.63;42.40
76285;BME280;65096;50.998;7.098;2023-04-15T09:10:28;100376.53;;;12.61;40.99
76285;BME280;65096;50.998;7.098;2023-04-15T09:12:55;100361.91;;;12.51;40.67
76285;BME280;65096;50.998;7.098;2023-04-15T09:15:23;100385.91;;;12.76;41.63
76285;BME280;65096;50.998;7.098;2023-04-15T09:17:51;100385.88;;;12.79;40.66
76285;BME280;65096;50.998;7.098;2023-04-15T09:20:18;100397.88;;;12.86;41.58
76285;BME280;65096;50.998;7.098;2023-04-15T09:22:46;100379.72;;;12.96;41.53
76285;BME280;65096;50.998;7.098;2023-04-15T09:25:30;100394.97;;;13.23;39.52
76285;BME280;65096;50.998;7.098;2023-04-15T09:27:58;100393.91;;;13.45;40.05
76285;BME280;65096;50.998;7.098;2023-04-15T09:30:27;100389.56;;;13.48;39.92
76285;BME280;65096;50.998;7.098;2023-04-15T09:32:55;100398.25;;;13.42;38.89
76285;BME280;65096;50.998;7.098;2023-04-15T09:35:23;100399.94;;;13.48;39.32
76285;BME280;65096;50.998;7.098;2023-04-15T09:37:52;100404.91;;;13.69;39.51
76285;BME280;65096;50.998;7.098;2023-04-15T09:40:32;100392.63;;;13.84;39.54
76285;BME280;65096;50.998;7.098;2023-04-15T09:42:59;100400.56;;;14.37;38.79
76285;BME280;65096;50.998;7.098;2023-04-15T09:45:26;100401.19;;;14.56;37.20
76285;BME280;65096;50.998;7.098;2023-04-15T09:47:53;100411.53;;;14.57;37.36
76285;BME280;65096;50.998;7.098;2023-04-15T09:50:20;100404.50;;;14.65;36.36
76285;BME280;65096;50.998;7.098;2023-04-15T09:52:47;100414.84;;;14.68;37.72
76285;BME280;65096;50.998;7.098;2023-04-15T09:55:14;100415.16;;;14.47;37.12
76285;BME280;65096;50.998;7.098;2023-04-15T09:57:43;100420.16;;;14.61;35.97
76285;BME280;65096;50.998;7.098;2023-04-15T10:00:12;100421.47;;;14.89;37.63
76285;BME280;65096;50.998;7.098;2023-04-15T10:02:40;100425.34;;;15.16;37.15
76285;BME280;65096;50.998;7.098;2023-04-15T10:05:09;100412.00;;;15.38;36.32
76285;BME280;65096;50.998;7.098;2023-04-15T10:07:37;100430.06;;;15.90;37.36
76285;BME280;65096;50.998;7.098;2023-04-15T10:10:06;100433.22;;;16.05;35.58
76285;BME280;65096;50.998;7.098;2023-04-15T10:12:36;100436.47;;;16.15;35.58
76285;BME280;65096;50.998;7.098;2023-04-15T10:15:05;100442.03;;;15.97;36.56
76285;BME280;65096;50.998;7.098;2023-04-15T10:17:33;100448.38;;;15.84;36.56
76285;BME280;65096;50.998;7.098;2023-04-15T10:20:01;100452.56;;;15.91;37.24
76285;BME280;65096;50.998;7.098;2023-04-15T10:22:29;100450.50;;;15.64;37.77
76285;BME280;65096;50.998;7.098;2023-04-15T10:24:56;100453.28;;;15.52;36.41
76285;BME280;65096;50.998;7.098;2023-04-15T10:27:25;100453.34;;;15.49;37.33
76285;BME280;65096;50.998;7.098;2023-04-15T10:29:52;100458.28;;;15.64;37.71
76285;BME280;65096;50.998;7.098;2023-04-15T10:32:21;100461.97;;;15.52;36.79
76285;BME280;65096;50.998;7.098;2023-04-15T10:34:50;100456.91;;;15.45;37.20
76285;BME280;65096;50.998;7.098;2023-04-15T10:37:21;100454.47;;;15.33;38.45
76285;BME280;65096;50.998;7.098;2023-04-15T10:39:48;100467.28;;;15.46;37.29
76285;BME280;65096;50.998;7.098;2023-04-15T10:42:16;100460.44;;;15.41;38.40
76285;BME280;65096;50.998;7.098;2023-04-15T10:44:44;100466.41;;;15.46;38.18
76285;BME280;65096;50.998;7.098;2023-04-15T10:47:14;100463.09;;;15.35;38.03
76285;BME280;65096;50.998;7.098;2023-04-15T10:49:46;100472.63;;;15.34;37.29
76285;BME280;65096;50.998;7.098;2023-04-15T10:52:14;100466.56;;;15.35;38.03
76285;BME280;65096;50.998;7.098;2023-04-15T10:54:42;100460.34;;;15.45;37.28
76285;BME280;65096;50.998;7.098;2023-04-15T10:57:14;100473.25;;;15.51;37.53
76285;BME280;65096;50.998;7.098;2023-04-15T11:00:08;100475.78;;;15.54;38.05
76285;BME280;65096;50.998;7.098;2023-04-15T11:02:46;100476.63;;;15.56;37.91
76285;BME280;65096;50.998;7.098;2023-04-15T11:05:15;100480.78;;;15.13;37.63
76285;BME280;65096;50.998;7.098;2023-04-15T11:07:50;100477.75;;;14.86;38.38
76285;BME280;65096;50.998;7.098;2023-04-15T11:10:50;100476.56;;;15.06;38.45
76285;BME280;65096;50.998;7.098;2023-04-15T11:13:23;100486.09;;;15.06;37.88
76285;BME280;65096;50.998;7.098;2023-04-15T11:16:00;100487.97;;;14.96;38.58
76285;BME280;65096;50.998;7.098;2023-04-15T11:18:32;100493.41;;;14.81;38.98
76285;BME280;65096;50.998;7.098;2023-04-15T11:21:02;100493.84;;;14.45;38.98
76285;BME280;65096;50.998;7.098;2023-04-15T11:23:31;100500.63;;;14.59;39.79
76285;BME280;65096;50.998;7.098;2023-04-15T11:25:59;100499.97;;;14.42;39.20
76285;BME280;65096;50.998;7.098;2023-04-15T11:28:27;100500.13;;;14.29;39.43
76285;BME280;65096;50.998;7.098;2023-04-15T11:30:55;100500.84;;;14.40;39.96
76285;BME280;65096;50.998;7.098;2023-04-15T11:33:23;100503.25;;;14.56;39.79
76285;BME280;65096;50.998;7.098;2023-04-15T11:35:52;100505.81;;;14.59;40.13
76285;BME280;65096;50.998;7.098;2023-04-15T11:38:21;100509.38;;;14.51;40.58
76285;BME280;65096;50.998;7.098;2023-04-15T11:40:48;100512.00;;;14.49;40.62
76285;BME280;65096;50.998;7.098;2023-04-15T11:43:18;100521.03;;;14.15;40.64
76285;BME280;65096;50.998;7.098;2023-04-15T11:45:51;100528.06;;;14.06;41.41
76285;BME280;65096;50.998;7.098;2023-04-15T11:48:19;100530.38;;;14.30;40.37
76285;BME280;65096;50.998;7.098;2023-04-15T11:50:52;100539.97;;;14.23;40.75
76285;BME280;65096;50.998;7.098;2023-04-15T11:53:19;100532.16;;;14.26;40.70
76285;BME280;65096;50.998;7.098;2023-04-15T11:55:49;100538.97;;;14.33;40.11
76285;BME280;65096;50.998;7.098;2023-04-15T11:58:17;100542.41;;;14.34;40.09
76285;BME280;65096;50.998;7.098;2023-04-15T12:00:46;100552.94;;;14.20;40.43
76285;BME280;65096;50.998;7.098;2023-04-15T12:03:18;100553.81;;;14.19;40.84
76285;BME280;65096;50.998;7.098;2023-04-15T12:06:05;100554.78;;;14.14;40.38
76285;BME280;65096;50.998;7.098;2023-04-15T12:08:56;100555.00;;;13.90;41.49
76285;BME280;65096;50.998;7.098;2023-04-15T12:11:40;100557.63;;;13.84;41.70
76285;BME280;65096;50.998;7.098;2023-04-15T12:14:09;100556.00;;;13.75;41.10
76285;BME280;65096;50.998;7.098;2023-04-15T12:16:38;100569.84;;;13.71;41.48
76285;BME280;65096;50.998;7.098;2023-04-15T12:19:08;100573.38;;;13.66;42.00
76285;BME280;65096;50.998;7.098;2023-04-15T12:21:36;100581.22;;;13.55;42.48
76285;BME280;65096;50.998;7.098;2023-04-15T12:24:05;100574.47;;;13.30;42.69
76285;BME280;65096;50.998;7.098;2023-04-15T12:26:36;100571.94;;;13.18;43.36
76285;BME280;65096;50.998;7.098;2023-04-15T12:29:05;100589.19;;;13.22;42.85
76285;BME280;65096;50.998;7.098;2023-04-15T12:31:33;100597.84;;;13.21;42.83
76285;BME280;65096;50.998;7.098;2023-04-15T12:34:00;100613.50;;;12.98;43.14
76285;BME280;65096;50.998;7.098;2023-04-15T12:36:27;100609.16;;;12.99;43.17
76285;BME280;65096;50.998;7.098;2023-04-15T12:38:54;100617.75;;;13.07;43.54
76285;BME280;65096;50.998;7.098;2023-04-15T12:41:21;100628.19;;;12.96;43.21
76285;BME280;65096;50.998;7.098;2023-04-15T12:43:50;100623.88;;;12.91;43.77
76285;BME280;65096;50.998;7.098;2023-04-15T12:46:17;100596.41;;;12.61;44.73
76285;BME280;65096;50.998;7.098;2023-04-15T12:48:44;100639.47;;;12.80;43.88
76285;BME280;65096;50.998;7.098;2023-04-15T12:51:11;100638.56;;;12.83;44.52
76285;BME280;65096;50.998;7.098;2023-04-15T12:53:37;100645.50;;;12.84;43.76
76285;BME280;65096;50.998;7.098;2023-04-15T12:56:04;100650.66;;;12.85;43.56
76285;BME280;65096;50.998;7.098;2023-04-15T12:58:32;100649.81;;;12.82;43.76